createdAt,value
2023-09-23T00:00:32.888Z,99033.56
2023-09-23T00:03:01.806Z,99040.72
2023-09-23T00:05:29.218Z,99048.06
2023-09-23T00:07:56.603Z,99043.44
2023-09-23T00:10:23.884Z,99041.34
2023-09-23T00:12:51.207Z,99044.72
2023-09-23T00:15:18.521Z,99046.81
2023-09-23T00:17:46.011Z,99053.97
2023-09-23T00:20:14.999Z,99062.38
2023-09-23T00:22:42.323Z,99062.16
2023-09-23T00:25:09.844Z,99067.84
2023-09-23T00:27:37.085Z,99063.41
2023-09-23T00:30:05.643Z,99065.69
2023-09-23T00:32:32.898Z,99071.16
2023-09-23T00:35:00.289Z,99069.50
2023-09-23T00:37:28.966Z,99070.53
2023-09-23T00:39:56.212Z,99067.16
2023-09-23T00:42:23.524Z,99077.03
2023-09-23T00:44:50.969Z,99068.84
2023-09-23T00:47:19.287Z,99072.44
2023-09-23T00:49:47.339Z,99074.09
2023-09-23T00:52:15.826Z,99076.63
2023-09-23T00:54:44.584Z,99083.16
2023-09-23T00:57:12.124Z,99081.03
2023-09-23T00:59:39.414Z,99083.56
2023-09-23T01:02:07.543Z,99074.94
2023-09-23T01:04:35.213Z,99073.88
2023-09-23T01:07:02.533Z,99076.00
2023-09-23T01:09:29.917Z,99073.00
2023-09-23T01:11:58.683Z,99080.56
2023-09-23T01:14:25.949Z,99081.38
2023-09-23T01:16:53.796Z,99087.88
2023-09-23T01:19:21.435Z,99091.66
2023-09-23T01:21:48.797Z,99085.16
2023-09-23T01:24:18.624Z,99095.66
2023-09-23T01:26:48.498Z,99088.06
2023-09-23T01:29:15.878Z,99100.25
2023-09-23T01:31:44.976Z,99106.19
2023-09-23T01:34:12.286Z,99111.41
2023-09-23T01:36:39.519Z,99118.59
2023-09-23T01:39:08.702Z,99116.09
2023-09-23T01:41:37.407Z,99126.53
2023-09-23T01:44:05.069Z,99132.00
2023-09-23T01:46:32.361Z,99135.78
2023-09-23T01:48:59.936Z,99128.25
2023-09-23T01:51:27.182Z,99140.44
2023-09-23T01:53:54.405Z,99145.25
2023-09-23T01:56:21.722Z,99145.88
2023-09-23T01:58:50.755Z,99160.16
2023-09-23T02:01:18.107Z,99165.41
2023-09-23T02:03:46.545Z,99156.38
2023-09-23T02:06:14.237Z,99162.47
2023-09-23T02:08:41.541Z,99149.00
2023-09-23T02:11:08.937Z,99143.53
2023-09-23T02:13:36.268Z,99153.75
2023-09-23T02:16:05.139Z,99151.16
2023-09-23T02:18:32.401Z,99161.69
2023-09-23T02:20:59.647Z,99167.97
2023-09-23T02:23:26.901Z,99163.81
2023-09-23T02:25:54.239Z,99169.66
2023-09-23T02:28:21.529Z,99170.28
2023-09-23T02:30:48.848Z,99167.34
2023-09-23T02:33:17.501Z,99178.28
2023-09-23T02:35:44.827Z,99187.53
2023-09-23T02:38:12.145Z,99182.50
2023-09-23T02:40:41.615Z,99186.84
2023-09-23T02:43:08.938Z,99202.03
2023-09-23T02:45:37.257Z,99198.63
2023-09-23T02:48:05.199Z,99198.41
2023-09-23T02:50:33.828Z,99204.84
2023-09-23T02:53:01.197Z,99201.03
2023-09-23T02:55:28.480Z,99202.69
2023-09-23T02:57:55.757Z,99204.75
2023-09-23T03:00:23.125Z,99214.84
2023-09-23T03:02:54.391Z,99206.16
2023-09-23T03:05:22.841Z,99210.91
2023-09-23T03:07:51.602Z,99221.72
2023-09-23T03:10:19.128Z,99220.63
2023-09-23T03:12:47.300Z,99231.72
2023-09-23T03:15:14.734Z,99239.03
2023-09-23T03:17:42.671Z,99245.97
2023-09-23T03:20:11.026Z,99245.47
2023-09-23T03:22:38.274Z,99251.31
2023-09-23T03:25:07.929Z,99263.44
2023-09-23T03:27:35.539Z,99255.19
2023-09-23T03:30:04.762Z,99249.66
2023-09-23T03:32:33.176Z,99251.75
2023-09-23T03:35:00.584Z,99253.00
2023-09-23T03:37:29.734Z,99249.50
2023-09-23T03:39:57.047Z,99257.06
2023-09-23T03:42:25.664Z,99261.75
2023-09-23T03:44:52.926Z,99269.47
2023-09-23T03:47:20.229Z,99283.19
2023-09-23T03:49:47.503Z,99294.84
2023-09-23T03:52:14.796Z,99290.97
2023-09-23T03:54:42.033Z,99287.97
2023-09-23T03:57:09.302Z,99283.09
2023-09-23T03:59:37.956Z,99278.38
2023-09-23T04:02:05.400Z,99277.91
2023-09-23T04:04:32.795Z,99278.00
2023-09-23T04:07:00.048Z,99278.38
2023-09-23T04:09:27.278Z,99277.03
2023-09-23T04:11:54.538Z,99285.78
2023-09-23T04:14:21.938Z,99296.19
2023-09-23T04:16:50.589Z,99295.53
2023-09-23T04:19:17.864Z,99303.88
2023-09-23T04:21:45.179Z,99311.38
2023-09-23T04:24:12.380Z,99313.81
2023-09-23T04:26:39.643Z,99321.16
2023-09-23T04:29:06.949Z,99320.81
2023-09-23T04:31:34.191Z,99331.06
2023-09-23T04:34:02.807Z,99332.09
2023-09-23T04:36:30.067Z,99327.47
2023-09-23T04:38:57.322Z,99330.38
2023-09-23T04:41:24.598Z,99330.22
2023-09-23T04:43:51.900Z,99334.81
2023-09-23T04:46:19.230Z,99334.81
2023-09-23T04:48:46.691Z,99333.97
2023-09-23T04:51:15.543Z,99335.00
2023-09-23T04:53:42.780Z,99351.81
2023-09-23T04:56:10.065Z,99359.13
2023-09-23T04:58:37.335Z,99358.75
2023-09-23T05:01:04.641Z,99364.03
2023-09-23T05:03:31.877Z,99358.41
2023-09-23T05:05:59.154Z,99360.94
2023-09-23T05:08:27.893Z,99367.22
2023-09-23T05:10:55.210Z,99362.44
2023-09-23T05:13:22.505Z,99372.31
2023-09-23T05:15:49.800Z,99368.25
2023-09-23T05:18:17.084Z,99377.56
2023-09-23T05:20:44.374Z,99386.44
2023-09-23T05:23:11.651Z,99381.44
2023-09-23T05:25:40.404Z,99387.53
2023-09-23T05:28:10.132Z,99386.34
2023-09-23T05:30:38.318Z,99386.84
2023-09-23T05:33:05.941Z,99389.00
2023-09-23T05:35:33.285Z,99394.75
2023-09-23T05:38:00.643Z,99394.69
2023-09-23T05:40:28.008Z,99396.00
2023-09-23T05:42:56.922Z,99403.63
2023-09-23T05:45:24.165Z,99408.81
2023-09-23T05:47:51.891Z,99412.78
2023-09-23T05:50:19.301Z,99413.16
2023-09-23T05:52:47.195Z,99421.81
2023-09-23T05:55:14.825Z,99426.28
2023-09-23T05:57:42.350Z,99426.53
2023-09-23T06:00:12.723Z,99436.59
2023-09-23T06:02:40.045Z,99430.22
2023-09-23T06:05:08.055Z,99434.59
2023-09-23T06:07:35.401Z,99435.31
2023-09-23T06:10:02.750Z,99445.94
2023-09-23T06:12:31.306Z,99447.13
2023-09-23T06:14:59.248Z,99448.88
2023-09-23T06:17:29.716Z,99447.00
2023-09-23T06:19:58.050Z,99448.00
2023-09-23T06:22:25.850Z,99451.56
2023-09-23T06:24:53.612Z,99444.75
2023-09-23T06:27:20.999Z,99450.41
2023-09-23T06:29:48.307Z,99461.34
2023-09-23T06:32:15.560Z,99464.13
2023-09-23T06:34:44.240Z,99471.72
2023-09-23T06:37:11.466Z,99478.31
2023-09-23T06:39:38.786Z,99486.38
2023-09-23T06:42:06.020Z,99494.38
2023-09-23T06:44:33.283Z,99501.59
2023-09-23T06:47:03.247Z,99514.16
2023-09-23T06:49:31.100Z,99517.19
2023-09-23T06:52:00.239Z,99525.94
2023-09-23T06:54:27.607Z,99528.06
2023-09-23T06:56:55.913Z,99531.47
2023-09-23T06:59:23.562Z,99527.50
2023-09-23T07:01:51.936Z,99528.38
2023-09-23T07:04:20.207Z,99528.31
2023-09-23T07:06:48.203Z,99540.59
2023-09-23T07:09:17.619Z,99543.16
2023-09-23T07:11:45.900Z,99553.66
2023-09-23T07:14:14.026Z,99553.22
2023-09-23T07:16:41.672Z,99553.97
2023-09-23T07:19:09.502Z,99558.63
2023-09-23T07:21:37.048Z,99566.91
2023-09-23T07:24:07.729Z,99558.75
2023-09-23T07:26:39.520Z,99564.19
2023-09-23T07:29:07.600Z,99571.81
2023-09-23T07:31:35.411Z,99572.50
2023-09-23T07:34:03.443Z,99577.59
2023-09-23T07:36:31.291Z,99590.69
2023-09-23T07:38:58.518Z,99587.22
2023-09-23T07:41:25.825Z,99579.09
2023-09-23T07:43:54.485Z,99591.16
2023-09-23T07:46:21.864Z,99570.69
2023-09-23T07:48:49.210Z,99568.97
2023-09-23T07:51:16.544Z,99570.25
2023-09-23T07:53:43.803Z,99574.91
2023-09-23T07:56:11.073Z,99589.63
2023-09-23T07:58:38.349Z,99588.91
2023-09-23T08:01:06.984Z,99594.00
2023-09-23T08:03:34.271Z,99601.00
2023-09-23T08:06:01.614Z,99610.72
2023-09-23T08:08:29.138Z,99612.44
2023-09-23T08:10:56.500Z,99617.56
2023-09-23T08:13:24.157Z,99622.66
2023-09-23T08:15:58.015Z,99629.25
2023-09-23T08:18:26.760Z,99635.19
2023-09-23T08:20:56.675Z,99631.00
2023-09-23T08:23:24.184Z,99634.59
2023-09-23T08:25:51.502Z,99645.59
2023-09-23T08:28:18.824Z,99650.47
2023-09-23T08:30:46.081Z,99649.19
2023-09-23T08:33:13.793Z,99657.03
2023-09-23T08:35:42.792Z,99663.78
2023-09-23T08:38:10.183Z,99669.47
2023-09-23T08:40:39.738Z,99673.09
2023-09-23T08:43:07.621Z,99677.75
2023-09-23T08:45:41.631Z,99678.38
2023-09-23T08:48:09.121Z,99681.13
2023-09-23T08:50:37.866Z,99678.78
2023-09-23T08:53:07.746Z,99691.06
2023-09-23T08:55:35.782Z,99688.72
2023-09-23T08:58:03.116Z,99691.22
2023-09-23T09:00:31.333Z,99690.59
2023-09-23T09:02:58.641Z,99681.09
2023-09-23T09:05:35.145Z,99693.75
2023-09-23T09:08:02.542Z,99686.69
2023-09-23T09:10:31.213Z,99699.69
2023-09-23T09:13:01.747Z,99709.44
2023-09-23T09:15:29.173Z,99700.97
2023-09-23T09:17:58.249Z,99719.50
2023-09-23T09:20:25.610Z,99719.94
2023-09-23T09:22:53.059Z,99717.16
2023-09-23T09:25:20.337Z,99714.06
2023-09-23T09:27:49.240Z,99716.44
2023-09-23T09:30:16.542Z,99711.94
2023-09-23T09:32:45.237Z,99711.53
2023-09-23T09:35:14.490Z,99716.47
2023-09-23T09:37:44.491Z,99716.31
2023-09-23T09:40:16.020Z,99709.97
2023-09-23T09:42:49.249Z,99716.03
2023-09-23T09:45:18.721Z,99713.69
2023-09-23T09:47:46.605Z,99714.47
2023-09-23T09:50:15.115Z,99713.88
2023-09-23T09:52:42.694Z,99712.75
2023-09-23T09:55:11.250Z,99711.28
2023-09-23T09:57:39.704Z,99714.91
2023-09-23T10:00:08.317Z,99711.13
2023-09-23T10:02:40.731Z,99718.56
2023-09-23T10:05:08.574Z,99714.34
2023-09-23T10:07:54.806Z,99717.97
2023-09-23T10:10:30.806Z,99713.72
2023-09-23T10:12:58.433Z,99723.56
2023-09-23T10:15:27.469Z,99716.97
2023-09-23T10:17:56.274Z,99720.81
2023-09-23T10:20:32.997Z,99717.31
2023-09-23T10:23:00.336Z,99719.94
2023-09-23T10:25:37.678Z,99720.50
2023-09-23T10:28:05.724Z,99721.78
2023-09-23T10:30:33.436Z,99722.44
2023-09-23T10:33:02.633Z,99712.50
2023-09-23T10:35:30.125Z,99717.13
2023-09-23T10:37:57.560Z,99722.03
2023-09-23T10:40:25.127Z,99706.91
2023-09-23T10:42:52.512Z,99706.75
2023-09-23T10:45:19.824Z,99705.19
2023-09-23T10:47:47.342Z,99697.97
2023-09-23T10:50:16.125Z,99708.97
2023-09-23T10:52:43.554Z,99711.94
2023-09-23T10:55:11.266Z,99713.50
2023-09-23T10:57:38.644Z,99723.03
2023-09-23T11:00:09.069Z,99723.69
2023-09-23T11:02:36.393Z,99725.38
2023-09-23T11:05:04.282Z,99717.84
2023-09-23T11:07:33.602Z,99722.38
2023-09-23T11:10:00.891Z,99727.84
2023-09-23T11:12:32.744Z,99726.84
2023-09-23T11:15:00.070Z,99726.78
2023-09-23T11:17:28.980Z,99723.97
2023-09-23T11:19:57.255Z,99728.38
2023-09-23T11:22:25.471Z,99731.94
2023-09-23T11:24:54.743Z,99735.44
2023-09-23T11:27:22.062Z,99739.22
2023-09-23T11:29:50.020Z,99750.16
2023-09-23T11:32:20.729Z,99749.75
2023-09-23T11:34:48.109Z,99753.94
2023-09-23T11:37:15.422Z,99751.59
2023-09-23T11:39:42.668Z,99753.06
2023-09-23T11:42:11.357Z,99749.69
2023-09-23T11:44:38.715Z,99759.88
2023-09-23T11:47:06.061Z,99755.53
2023-09-23T11:49:33.544Z,99759.84
2023-09-23T11:52:00.805Z,99754.38
2023-09-23T11:54:28.211Z,99752.63
2023-09-23T11:56:55.494Z,99749.88
2023-09-23T11:59:24.158Z,99757.81
2023-09-23T12:01:51.679Z,99759.03
2023-09-23T12:04:19.079Z,99765.19
2023-09-23T12:06:46.412Z,99761.34
2023-09-23T12:09:13.652Z,99761.28
2023-09-23T12:11:40.959Z,99762.50
2023-09-23T12:14:08.290Z,99764.63
2023-09-23T12:16:36.941Z,99763.41
2023-09-23T12:19:04.541Z,99757.34
2023-09-23T12:21:32.117Z,99765.53
2023-09-23T12:23:59.442Z,99763.31
2023-09-23T12:26:26.838Z,99756.56
2023-09-23T12:28:54.176Z,99756.66
2023-09-23T12:31:21.486Z,99764.19
2023-09-23T12:33:50.093Z,99758.91
2023-09-23T12:36:17.366Z,99770.09
2023-09-23T12:38:44.821Z,99766.47
2023-09-23T12:41:12.269Z,99766.63
2023-09-23T12:43:39.524Z,99771.56
2023-09-23T12:46:06.941Z,99778.91
2023-09-23T12:48:34.452Z,99765.13
2023-09-23T12:51:03.363Z,99777.56
2023-09-23T12:53:30.630Z,99779.28
2023-09-23T12:55:57.977Z,99767.97
2023-09-23T12:58:25.456Z,99773.19
2023-09-23T13:00:52.884Z,99771.75
2023-09-23T13:03:20.252Z,99768.78
2023-09-23T13:05:47.758Z,99783.06
2023-09-23T13:08:16.496Z,99772.88
2023-09-23T13:10:43.881Z,99778.06
2023-09-23T13:13:11.211Z,99774.78
2023-09-23T13:15:38.594Z,99778.00
2023-09-23T13:18:06.475Z,99778.44
2023-09-23T13:20:33.771Z,99780.25
2023-09-23T13:23:01.343Z,99771.41
2023-09-23T13:25:32.250Z,99784.22
2023-09-23T13:27:59.658Z,99784.03
2023-09-23T13:30:27.898Z,99789.25
2023-09-23T13:32:55.438Z,99791.91
2023-09-23T13:35:23.067Z,99800.94
2023-09-23T13:37:50.345Z,99804.44
2023-09-23T13:40:17.698Z,99807.09
2023-09-23T13:42:46.303Z,99807.31
2023-09-23T13:45:13.596Z,99807.59
2023-09-23T13:47:41.038Z,99816.50
2023-09-23T13:50:08.938Z,99812.91
2023-09-23T13:52:36.265Z,99812.28
2023-09-23T13:55:04.465Z,99814.47
2023-09-23T13:57:31.750Z,99813.56
2023-09-23T14:00:00.429Z,99816.97
2023-09-23T14:02:28.023Z,99815.59
2023-09-23T14:04:55.472Z,99820.00
2023-09-23T14:07:22.820Z,99822.13
2023-09-23T14:09:50.224Z,99824.59
2023-09-23T14:12:17.816Z,99822.19
2023-09-23T14:14:45.241Z,99822.03
2023-09-23T14:17:14.026Z,99830.69
2023-09-23T14:19:41.386Z,99832.16
2023-09-23T14:22:08.819Z,99822.72
2023-09-23T14:24:36.067Z,99834.91
2023-09-23T14:27:03.485Z,99830.34
2023-09-23T14:29:30.739Z,99828.88
2023-09-23T14:31:58.035Z,99838.84
2023-09-23T14:34:26.694Z,99844.22
2023-09-23T14:36:54.374Z,99841.78
2023-09-23T14:39:21.695Z,99845.34
2023-09-23T14:41:48.936Z,99848.25
2023-09-23T14:44:16.351Z,99857.97
2023-09-23T14:46:43.627Z,99849.91
2023-09-23T14:49:10.883Z,99857.66
2023-09-23T14:51:39.541Z,99866.63
2023-09-23T14:54:07.017Z,99869.03
2023-09-23T14:56:34.343Z,99870.66
2023-09-23T14:59:01.785Z,99873.66
2023-09-23T15:01:31.163Z,99888.94
2023-09-23T15:03:58.652Z,99886.28
2023-09-23T15:06:26.641Z,99884.06
2023-09-23T15:09:00.524Z,99892.34
2023-09-23T15:11:29.318Z,99892.66
2023-09-23T15:13:57.100Z,99886.22
2023-09-23T15:16:24.636Z,99890.63
2023-09-23T15:18:51.925Z,99895.38
2023-09-23T15:21:19.242Z,99895.81
2023-09-23T15:23:46.497Z,99892.28
2023-09-23T15:26:15.368Z,99894.72
2023-09-23T15:28:42.761Z,99896.88
2023-09-23T15:31:10.093Z,99900.31
2023-09-23T15:33:37.420Z,99898.97
2023-09-23T15:36:05.326Z,99894.78
2023-09-23T15:38:33.246Z,99899.13
2023-09-23T15:41:00.556Z,99893.19
2023-09-23T15:43:29.228Z,99893.84
2023-09-23T15:45:59.454Z,99890.06
2023-09-23T15:48:26.841Z,99898.31
2023-09-23T15:50:54.223Z,99902.53
2023-09-23T15:53:21.601Z,99898.50
2023-09-23T15:55:50.098Z,99892.38
2023-09-23T15:58:17.374Z,99898.25
2023-09-23T16:00:46.323Z,99899.72
2023-09-23T16:03:13.830Z,99909.84
2023-09-23T16:05:41.369Z,99917.47
2023-09-23T16:08:08.753Z,99912.38
2023-09-23T16:10:36.043Z,99910.38
2023-09-23T16:13:03.580Z,99910.38
2023-09-23T16:15:32.652Z,99909.09
2023-09-23T16:18:01.455Z,99911.81
2023-09-23T16:20:28.828Z,99913.72
2023-09-23T16:22:56.269Z,99921.09
2023-09-23T16:25:23.537Z,99922.75
2023-09-23T16:27:50.839Z,99917.84
2023-09-23T16:30:18.158Z,99914.81
2023-09-23T16:32:45.469Z,99922.59
2023-09-23T16:35:14.225Z,99925.75
2023-09-23T16:37:41.548Z,99924.63
2023-09-23T16:40:09.739Z,99928.19
2023-09-23T16:42:37.315Z,99926.81
2023-09-23T16:45:05.384Z,99927.34
2023-09-23T16:47:33.092Z,99935.72
2023-09-23T16:50:00.611Z,99937.97
2023-09-23T16:52:29.336Z,99940.94
2023-09-23T16:54:56.635Z,99937.66
2023-09-23T16:57:23.976Z,99940.81
2023-09-23T16:59:51.248Z,99944.06
2023-09-23T17:02:18.919Z,99953.91
2023-09-23T17:04:46.506Z,99960.72
2023-09-23T17:07:14.459Z,99959.34
2023-09-23T17:09:43.396Z,99964.66
2023-09-23T17:12:10.939Z,99963.91
2023-09-23T17:14:38.463Z,99965.31
2023-09-23T17:17:05.884Z,99975.16
2023-09-23T17:19:33.204Z,99987.63
2023-09-23T17:22:00.851Z,99976.94
2023-09-23T17:24:28.429Z,99987.63
2023-09-23T17:26:57.108Z,99991.09
2023-09-23T17:29:24.498Z,100001.56
2023-09-23T17:31:51.893Z,100001.94
2023-09-23T17:34:19.223Z,100017.75
2023-09-23T17:36:46.628Z,100013.38
2023-09-23T17:39:13.880Z,100016.91
2023-09-23T17:41:41.236Z,100012.53
2023-09-23T17:44:09.977Z,100025.19
2023-09-23T17:46:37.536Z,100028.47
2023-09-23T17:49:04.856Z,100034.34
2023-09-23T17:51:32.253Z,100031.97
2023-09-23T17:53:59.691Z,100035.03
2023-09-23T17:56:27.242Z,100040.84
2023-09-23T17:58:54.679Z,100049.75
2023-09-23T18:01:23.611Z,100045.53
2023-09-23T18:03:51.306Z,100050.19
2023-09-23T18:06:18.900Z,100057.53
2023-09-23T18:08:46.305Z,100060.59
2023-09-23T18:11:13.763Z,100066.28
2023-09-23T18:13:41.126Z,100071.56
2023-09-23T18:16:08.841Z,100079.09
2023-09-23T18:18:37.654Z,100075.19
2023-09-23T18:21:05.035Z,100087.31
2023-09-23T18:23:32.372Z,100093.28
2023-09-23T18:25:59.709Z,100087.88
2023-09-23T18:28:27.047Z,100086.50
2023-09-23T18:30:54.559Z,100098.44
2023-09-23T18:33:21.958Z,100103.41
2023-09-23T18:35:50.707Z,100103.91
2023-09-23T18:38:17.997Z,100111.44
2023-09-23T18:40:45.289Z,100126.94
2023-09-23T18:43:12.595Z,100134.31
2023-09-23T18:45:42.739Z,100131.03
2023-09-23T18:48:23.803Z,100137.38
2023-09-23T18:50:55.011Z,100140.22
2023-09-23T18:53:22.376Z,100137.84
2023-09-23T18:55:49.772Z,100143.81
2023-09-23T18:58:17.096Z,100142.78
2023-09-23T19:00:44.535Z,100138.88
2023-09-23T19:03:12.025Z,100136.31
2023-09-23T19:05:39.695Z,100138.53
2023-09-23T19:08:08.570Z,100143.97
2023-09-23T19:10:35.863Z,100143.47
2023-09-23T19:13:03.168Z,100146.38
2023-09-23T19:15:30.446Z,100153.84
2023-09-23T19:17:57.868Z,100156.06
2023-09-23T19:20:25.262Z,100161.03
2023-09-23T19:22:52.636Z,100165.59
2023-09-23T19:25:21.301Z,100175.63
2023-09-23T19:27:48.709Z,100176.00
2023-09-23T19:30:16.075Z,100185.00
2023-09-23T19:32:43.560Z,100192.31
2023-09-23T19:35:11.164Z,100189.75
2023-09-23T19:37:38.972Z,100199.28
2023-09-23T19:40:07.749Z,100201.66
2023-09-23T19:42:36.450Z,100208.63
2023-09-23T19:45:04.092Z,100210.31
2023-09-23T19:47:31.684Z,100210.84
2023-09-23T19:49:59.410Z,100216.59
2023-09-23T19:52:27.959Z,100210.28
2023-09-23T19:54:55.221Z,100221.69
2023-09-23T19:57:22.586Z,100224.75
2023-09-23T19:59:51.369Z,100234.25
2023-09-23T20:02:18.753Z,100238.00
2023-09-23T20:04:46.047Z,100239.19
2023-09-23T20:07:13.356Z,100245.09
2023-09-23T20:09:40.655Z,100250.34
2023-09-23T20:12:07.980Z,100255.44
2023-09-23T20:14:35.342Z,100256.63
2023-09-23T20:17:05.390Z,100254.03
2023-09-23T20:19:33.556Z,100271.41
2023-09-23T20:22:00.863Z,100263.69
2023-09-23T20:24:28.133Z,100271.81
2023-09-23T20:26:55.515Z,100278.44
2023-09-23T20:29:23.172Z,100272.47
2023-09-23T20:31:50.602Z,100282.78
2023-09-23T20:34:19.265Z,100282.94
2023-09-23T20:36:46.554Z,100276.50
2023-09-23T20:39:13.841Z,100285.16
2023-09-23T20:41:41.272Z,100286.00
2023-09-23T20:44:08.643Z,100284.78
2023-09-23T20:46:36.035Z,100294.78
2023-09-23T20:49:03.419Z,100297.81
2023-09-23T20:51:32.171Z,100307.88
2023-09-23T20:53:59.606Z,100310.22
2023-09-23T20:56:26.976Z,100308.25
2023-09-23T20:58:54.275Z,100315.72
2023-09-23T21:01:21.625Z,100317.34
2023-09-23T21:03:49.682Z,100318.34
2023-09-23T21:06:17.245Z,100320.34
2023-09-23T21:08:46.027Z,100319.50
2023-09-23T21:11:13.317Z,100325.53
2023-09-23T21:13:40.569Z,100322.97
2023-09-23T21:16:07.846Z,100324.72
2023-09-23T21:18:35.248Z,100330.97
2023-09-23T21:21:02.569Z,100329.28
2023-09-23T21:23:29.890Z,100327.56
2023-09-23T21:25:58.594Z,100327.28
2023-09-23T21:28:25.869Z,100333.56
2023-09-23T21:30:53.197Z,100345.44
2023-09-23T21:33:20.756Z,100342.00
2023-09-23T21:35:48.277Z,100344.91
2023-09-23T21:38:15.606Z,100348.47
2023-09-23T21:40:42.927Z,100351.19
2023-09-23T21:43:11.557Z,100348.47
2023-09-23T21:45:39.487Z,100360.06
2023-09-23T21:48:07.917Z,100358.34
2023-09-23T21:50:35.570Z,100354.94
2023-09-23T21:53:03.815Z,100365.81
2023-09-23T21:55:31.193Z,100364.25
2023-09-23T21:57:58.465Z,100368.13
2023-09-23T22:00:27.100Z,100359.72
2023-09-23T22:02:56.129Z,100360.91
2023-09-23T22:05:23.927Z,100364.75
2023-09-23T22:07:53.578Z,100366.94
2023-09-23T22:10:20.822Z,100373.09
2023-09-23T22:12:48.073Z,100376.34
2023-09-23T22:15:15.448Z,100375.91
2023-09-23T22:17:44.247Z,100374.13
2023-09-23T22:20:12.964Z,100379.66
2023-09-23T22:22:40.221Z,100376.19
2023-09-23T22:25:08.169Z,100380.31
2023-09-23T22:27:35.406Z,100390.59
2023-09-23T22:30:02.801Z,100395.03
2023-09-23T22:32:30.159Z,100398.13
2023-09-23T22:34:58.957Z,100410.34
2023-09-23T22:37:27.666Z,100418.34
2023-09-23T22:40:02.280Z,100416.78
2023-09-23T22:42:30.708Z,100410.34
2023-09-23T22:44:58.018Z,100411.88
2023-09-23T22:47:25.392Z,100418.75
2023-09-23T22:49:52.743Z,100416.50
2023-09-23T22:52:21.400Z,100415.63
2023-09-23T22:54:48.721Z,100425.06
2023-09-23T22:57:15.961Z,100417.03
2023-09-23T22:59:43.213Z,100415.03
2023-09-23T23:02:10.561Z,100414.41
2023-09-23T23:04:37.919Z,100417.66
2023-09-23T23:07:05.293Z,100422.13
2023-09-23T23:09:33.944Z,100430.72
2023-09-23T23:12:01.270Z,100431.03
2023-09-23T23:14:28.589Z,100427.63
2023-09-23T23:16:56.052Z,100439.53
2023-09-23T23:19:23.424Z,100432.50
2023-09-23T23:21:50.813Z,100440.66
2023-09-23T23:24:18.508Z,100439.81
2023-09-23T23:26:47.157Z,100450.72
2023-09-23T23:29:14.522Z,100455.59
2023-09-23T23:31:41.868Z,100458.78
2023-09-23T23:34:09.098Z,100453.50
2023-09-23T23:36:36.347Z,100451.88
2023-09-23T23:39:03.855Z,100452.41
2023-09-23T23:41:31.204Z,100451.41
2023-09-23T23:44:00.061Z,100455.22
2023-09-23T23:46:27.317Z,100459.19
2023-09-23T23:48:54.630Z,100457.47
2023-09-23T23:51:21.883Z,100453.72
2023-09-23T23:53:49.729Z,100461.44
2023-09-23T23:56:17.117Z,100454.69
2023-09-23T23:58:44.517Z,100465.97
